sensor_id;sensor_type;location;lat;lon;timestamp;pressure;altitude;pressure_sealevel;temperature;humidity
20793;BME280;10556;-33.662;151.094;2022-11-06T00:03:46;100238.88;;;21.61;100.00
20793;BME280;10556;-33.662;151.094;2022-11-06T00:08:49;100223.94;;;21.74;100.00
20793;BME280;10556;-33.662;151.094;2022-11-06T00:13:53;100217.97;;;21.84;100.00
20793;BME280;10556;-33.662;151.094;2022-11-06T00:18:58;100208.00;;;22.00;100.00
20793;BME280;10556;-33.662;151.094;2022-11-06T00:24:01;100200.53;;;21.86;100.00
20793;BME280;10556;-33.662;151.094;2022-11-06T00:29:06;100183.38;;;21.94;100.00
20793;BME280;10556;-33.662;151.094;2022-11-06T00:34:10;100192.38;;;22.21;100.00
20793;BME280;10556;-33.662;151.094;2022-11-06T00:39:12;100177.88;;;22.48;100.00
20793;BME280;10556;-33.662;151.094;2022-11-06T00:44:17;100159.78;;;22.77;100.00
20793;BME280;10556;-33.662;151.094;2022-11-06T00:49:19;100151.59;;;23.01;100.00
20793;BME280;10556;-33.662;151.094;2022-11-06T00:54:22;100141.84;;;23.32;100.00
20793;BME280;10556;-33.662;151.094;2022-11-06T00:59:26;100135.00;;;23.40;91.02
20793;BME280;10556;-33.662;151.094;2022-11-06T01:04:29;100132.25;;;23.42;91.57
20793;BME280;10556;-33.662;151.094;2022-11-06T01:09:32;100126.53;;;23.58;84.69
20793;BME280;10556;-33.662;151.094;2022-11-06T01:14:38;100115.78;;;23.70;88.56
20793;BME280;10556;-33.662;151.094;2022-11-06T01:19:41;100107.34;;;23.96;93.16
20793;BME280;10556;-33.662;151.094;2022-11-06T01:24:43;100098.94;;;24.11;82.95
20793;BME280;10556;-33.662;151.094;2022-11-06T01:29:48;100088.47;;;23.84;71.82
20793;BME280;10556;-33.662;151.094;2022-11-06T01:34:50;100082.13;;;23.96;80.36
20793;BME280;10556;-33.662;151.094;2022-11-06T01:39:53;100081.22;;;24.15;79.01
20793;BME280;10556;-33.662;151.094;2022-11-06T01:50:37;100064.09;;;24.40;81.45
20793;BME280;10556;-33.662;151.094;2022-11-06T01:55:42;100058.50;;;24.35;78.21
20793;BME280;10556;-33.662;151.094;2022-11-06T02:00:46;100048.22;;;24.33;85.46
20793;BME280;10556;-33.662;151.094;2022-11-06T02:05:51;100042.50;;;24.47;83.77
20793;BME280;10556;-33.662;151.094;2022-11-06T02:16:29;100029.81;;;24.70;82.78
20793;BME280;10556;-33.662;151.094;2022-11-06T02:22:13;100030.09;;;24.41;83.89
20793;BME280;10556;-33.662;151.094;2022-11-06T02:27:22;100019.66;;;24.41;87.45
20793;BME280;10556;-33.662;151.094;2022-11-06T02:32:28;100026.59;;;24.50;87.57
20793;BME280;10556;-33.662;151.094;2022-11-06T02:37:35;100026.34;;;24.44;85.13
20793;BME280;10556;-33.662;151.094;2022-11-06T02:42:42;100020.44;;;24.24;86.86
20793;BME280;10556;-33.662;151.094;2022-11-06T02:47:47;100019.78;;;24.22;88.39
20793;BME280;10556;-33.662;151.094;2022-11-06T02:52:53;100012.56;;;24.33;91.61
20793;BME280;10556;-33.662;151.094;2022-11-06T02:58:02;99996.47;;;24.38;91.35
20793;BME280;10556;-33.662;151.094;2022-11-06T03:03:10;100000.59;;;24.41;90.79
20793;BME280;10556;-33.662;151.094;2022-11-06T03:08:19;99986.13;;;24.46;91.45
20793;BME280;10556;-33.662;151.094;2022-11-06T03:13:31;99984.34;;;24.47;89.25
20793;BME280;10556;-33.662;151.094;2022-11-06T03:18:39;99971.41;;;24.55;90.83
20793;BME280;10556;-33.662;151.094;2022-11-06T03:23:48;99984.97;;;24.41;89.34
20793;BME280;10556;-33.662;151.094;2022-11-06T03:28:56;99977.94;;;24.23;90.93
20793;BME280;10556;-33.662;151.094;2022-11-06T03:34:04;99969.47;;;24.21;89.39
20793;BME280;10556;-33.662;151.094;2022-11-06T03:39:10;99967.84;;;24.20;85.66
20793;BME280;10556;-33.662;151.094;2022-11-06T03:44:18;99970.16;;;24.14;86.77
20793;BME280;10556;-33.662;151.094;2022-11-06T03:49:27;99960.94;;;24.02;86.89
20793;BME280;10556;-33.662;151.094;2022-11-06T03:54:34;99952.59;;;23.98;88.99
20793;BME280;10556;-33.662;151.094;2022-11-06T03:59:43;99931.69;;;23.90;88.71
20793;BME280;10556;-33.662;151.094;2022-11-06T04:04:50;99934.97;;;23.92;91.55
20793;BME280;10556;-33.662;151.094;2022-11-06T04:09:58;99932.56;;;23.99;91.49
20793;BME280;10556;-33.662;151.094;2022-11-06T04:15:03;99929.38;;;24.05;91.24
20793;BME280;10556;-33.662;151.094;2022-11-06T04:20:09;99921.63;;;23.95;92.51
20793;BME280;10556;-33.662;151.094;2022-11-06T04:25:21;99915.78;;;23.93;93.37
20793;BME280;10556;-33.662;151.094;2022-11-06T04:30:30;99908.25;;;23.90;95.96
20793;BME280;10556;-33.662;151.094;2022-11-06T04:35:43;99916.44;;;23.77;96.93
20793;BME280;10556;-33.662;151.094;2022-11-06T04:40:53;99903.38;;;23.60;96.57
20793;BME280;10556;-33.662;151.094;2022-11-06T04:46:01;99897.16;;;23.43;96.32
20793;BME280;10556;-33.662;151.094;2022-11-06T04:51:07;99895.13;;;23.37;96.70
20793;BME280;10556;-33.662;151.094;2022-11-06T04:56:12;99890.44;;;23.13;96.53
20793;BME280;10556;-33.662;151.094;2022-11-06T05:01:24;99879.84;;;22.97;94.87
20793;BME280;10556;-33.662;151.094;2022-11-06T05:06:26;99880.53;;;22.89;94.28
20793;BME280;10556;-33.662;151.094;2022-11-06T05:11:29;99873.72;;;22.69;95.99
20793;BME280;10556;-33.662;151.094;2022-11-06T05:16:33;99872.25;;;22.76;97.78
20793;BME280;10556;-33.662;151.094;2022-11-06T05:21:36;99878.25;;;22.77;97.22
20793;BME280;10556;-33.662;151.094;2022-11-06T05:26:38;99860.78;;;22.40;100.00
20793;BME280;10556;-33.662;151.094;2022-11-06T05:31:43;99860.00;;;22.11;100.00
20793;BME280;10556;-33.662;151.094;2022-11-06T05:36:45;99859.22;;;22.10;100.00
20793;BME280;10556;-33.662;151.094;2022-11-06T05:41:48;99863.44;;;22.02;100.00
20793;BME280;10556;-33.662;151.094;2022-11-06T05:46:53;99863.97;;;21.86;100.00
20793;BME280;10556;-33.662;151.094;2022-11-06T05:51:55;99857.94;;;21.86;100.00
20793;BME280;10556;-33.662;151.094;2022-11-06T05:56:58;99852.47;;;21.79;100.00
20793;BME280;10556;-33.662;151.094;2022-11-06T06:02:02;99860.63;;;21.55;100.00
20793;BME280;10556;-33.662;151.094;2022-11-06T06:07:05;99853.31;;;21.30;100.00
20793;BME280;10556;-33.662;151.094;2022-11-06T06:12:09;99861.91;;;21.21;100.00
20793;BME280;10556;-33.662;151.094;2022-11-06T06:17:14;99859.59;;;21.18;100.00
20793;BME280;10556;-33.662;151.094;2022-11-06T06:22:16;99859.22;;;21.02;100.00
20793;BME280;10556;-33.662;151.094;2022-11-06T06:27:19;99861.16;;;20.79;100.00
20793;BME280;10556;-33.662;151.094;2022-11-06T06:32:23;99854.81;;;20.62;100.00
20793;BME280;10556;-33.662;151.094;2022-11-06T06:37:26;99857.63;;;20.38;100.00
20793;BME280;10556;-33.662;151.094;2022-11-06T06:42:28;99866.06;;;20.20;100.00
20793;BME280;10556;-33.662;151.094;2022-11-06T06:47:33;99866.97;;;20.09;100.00
20793;BME280;10556;-33.662;151.094;2022-11-06T06:52:35;99869.91;;;20.05;100.00
20793;BME280;10556;-33.662;151.094;2022-11-06T06:57:38;99863.84;;;19.94;100.00
20793;BME280;10556;-33.662;151.094;2022-11-06T07:02:42;99875.72;;;19.86;100.00
20793;BME280;10556;-33.662;151.094;2022-11-06T07:07:45;99879.47;;;19.93;100.00
20793;BME280;10556;-33.662;151.094;2022-11-06T07:12:47;99884.09;;;19.89;100.00
20793;BME280;10556;-33.662;151.094;2022-11-06T07:17:52;99892.44;;;19.82;100.00
20793;BME280;10556;-33.662;151.094;2022-11-06T07:22:54;99891.28;;;19.75;100.00
20793;BME280;10556;-33.662;151.094;2022-11-06T07:28:00;99892.25;;;19.63;100.00
20793;BME280;10556;-33.662;151.094;2022-11-06T07:33:05;99901.19;;;19.58;100.00
20793;BME280;10556;-33.662;151.094;2022-11-06T07:38:08;99905.06;;;19.53;100.00
20793;BME280;10556;-33.662;151.094;2022-11-06T07:43:11;99913.78;;;19.41;100.00
20793;BME280;10556;-33.662;151.094;2022-11-06T07:48:18;99914.81;;;19.38;100.00
20793;BME280;10556;-33.662;151.094;2022-11-06T07:53:20;99923.63;;;19.36;100.00
20793;BME280;10556;-33.662;151.094;2022-11-06T07:58:24;99924.00;;;19.31;100.00
20793;BME280;10556;-33.662;151.094;2022-11-06T08:03:28;99920.69;;;19.29;100.00
20793;BME280;10556;-33.662;151.094;2022-11-06T08:08:31;99920.09;;;19.14;100.00
20793;BME280;10556;-33.662;151.094;2022-11-06T08:13:33;99922.44;;;19.06;100.00
20793;BME280;10556;-33.662;151.094;2022-11-06T08:18:38;99936.66;;;19.01;100.00
20793;BME280;10556;-33.662;151.094;2022-11-06T08:23:41;99933.72;;;18.94;100.00
20793;BME280;10556;-33.662;151.094;2022-11-06T08:28:43;99930.66;;;18.89;100.00
20793;BME280;10556;-33.662;151.094;2022-11-06T08:33:48;99943.44;;;18.80;100.00
20793;BME280;10556;-33.662;151.094;2022-11-06T08:38:50;99932.59;;;18.63;100.00
20793;BME280;10556;-33.662;151.094;2022-11-06T08:43:53;99942.66;;;18.55;100.00
20793;BME280;10556;-33.662;151.094;2022-11-06T08:48:57;99955.06;;;18.50;100.00
20793;BME280;10556;-33.662;151.094;2022-11-06T08:54:00;99961.97;;;18.50;100.00
20793;BME280;10556;-33.662;151.094;2022-11-06T08:59:03;99972.50;;;18.47;100.00
20793;BME280;10556;-33.662;151.094;2022-11-06T09:04:07;99974.94;;;18.37;100.00
20793;BME280;10556;-33.662;151.094;2022-11-06T09:09:10;99981.97;;;18.35;100.00
20793;BME280;10556;-33.662;151.094;2022-11-06T09:14:12;99978.78;;;18.32;100.00
20793;BME280;10556;-33.662;151.094;2022-11-06T09:19:17;99983.66;;;18.23;100.00
20793;BME280;10556;-33.662;151.094;2022-11-06T09:24:19;99987.28;;;18.21;100.00
20793;BME280;10556;-33.662;151.094;2022-11-06T09:29:22;99992.97;;;18.13;100.00
20793;BME280;10556;-33.662;151.094;2022-11-06T09:34:26;99990.03;;;18.07;100.00
20793;BME280;10556;-33.662;151.094;2022-11-06T09:39:29;99987.66;;;18.04;100.00
20793;BME280;10556;-33.662;151.094;2022-11-06T09:44:41;99997.16;;;18.03;100.00
20793;BME280;10556;-33.662;151.094;2022-11-06T09:49:49;99992.94;;;18.02;100.00
20793;BME280;10556;-33.662;151.094;2022-11-06T09:54:54;99997.97;;;18.04;100.00
20793;BME280;10556;-33.662;151.094;2022-11-06T10:00:00;100018.72;;;18.02;100.00
20793;BME280;10556;-33.662;151.094;2022-11-06T10:05:11;100022.97;;;18.03;100.00
20793;BME280;10556;-33.662;151.094;2022-11-06T10:10:16;100030.72;;;18.03;100.00
20793;BME280;10556;-33.662;151.094;2022-11-06T10:15:23;100044.53;;;18.02;100.00
20793;BME280;10556;-33.662;151.094;2022-11-06T10:20:32;100047.19;;;18.01;100.00
20793;BME280;10556;-33.662;151.094;2022-11-06T10:25:44;100049.06;;;17.99;100.00
20793;BME280;10556;-33.662;151.094;2022-11-06T10:30:53;100055.66;;;18.03;100.00
20793;BME280;10556;-33.662;151.094;2022-11-06T10:36:06;100068.66;;;18.01;100.00
20793;BME280;10556;-33.662;151.094;2022-11-06T10:41:16;100073.00;;;18.01;100.00
20793;BME280;10556;-33.662;151.094;2022-11-06T10:46:24;100082.81;;;17.96;100.00
20793;BME280;10556;-33.662;151.094;2022-11-06T10:51:49;100093.22;;;17.94;100.00
20793;BME280;10556;-33.662;151.094;2022-11-06T10:57:07;100081.88;;;17.97;100.00
20793;BME280;10556;-33.662;151.094;2022-11-06T11:02:22;100083.31;;;18.01;100.00
20793;BME280;10556;-33.662;151.094;2022-11-06T11:07:30;100083.09;;;18.04;100.00
20793;BME280;10556;-33.662;151.094;2022-11-06T11:12:33;100082.06;;;18.06;100.00
20793;BME280;10556;-33.662;151.094;2022-11-06T11:17:36;100090.50;;;18.08;100.00
20793;BME280;10556;-33.662;151.094;2022-11-06T11:22:40;100083.59;;;18.09;100.00
20793;BME280;10556;-33.662;151.094;2022-11-06T11:27:44;100079.81;;;18.02;100.00
20793;BME280;10556;-33.662;151.094;2022-11-06T11:32:47;100084.88;;;18.03;100.00
20793;BME280;10556;-33.662;151.094;2022-11-06T11:37:52;100081.34;;;18.04;100.00
20793;BME280;10556;-33.662;151.094;2022-11-06T11:43:23;100080.63;;;18.02;100.00
20793;BME280;10556;-33.662;151.094;2022-11-06T11:48:26;100083.22;;;18.02;100.00
20793;BME280;10556;-33.662;151.094;2022-11-06T11:53:34;100061.84;;;18.00;100.00
20793;BME280;10556;-33.662;151.094;2022-11-06T11:58:39;100064.44;;;18.00;100.00
20793;BME280;10556;-33.662;151.094;2022-11-06T12:03:45;100064.25;;;17.91;100.00
20793;BME280;10556;-33.662;151.094;2022-11-06T12:08:52;100068.28;;;17.82;100.00
20793;BME280;10556;-33.662;151.094;2022-11-06T12:19:46;100080.88;;;17.74;100.00
20793;BME280;10556;-33.662;151.094;2022-11-06T12:24:53;100074.56;;;17.65;100.00
20793;BME280;10556;-33.662;151.094;2022-11-06T12:30:03;100075.97;;;17.57;100.00
20793;BME280;10556;-33.662;151.094;2022-11-06T12:35:14;100072.50;;;17.45;100.00
20793;BME280;10556;-33.662;151.094;2022-11-06T12:40:21;100077.94;;;17.40;100.00
20793;BME280;10556;-33.662;151.094;2022-11-06T12:45:36;100068.34;;;17.42;100.00
20793;BME280;10556;-33.662;151.094;2022-11-06T12:50:45;100060.84;;;17.39;100.00
20793;BME280;10556;-33.662;151.094;2022-11-06T12:55:55;100059.78;;;17.42;100.00
20793;BME280;10556;-33.662;151.094;2022-11-06T13:01:05;100057.22;;;17.42;100.00
20793;BME280;10556;-33.662;151.094;2022-11-06T13:06:15;100053.94;;;17.40;100.00
20793;BME280;10556;-33.662;151.094;2022-11-06T13:11:32;100053.28;;;17.36;100.00
20793;BME280;10556;-33.662;151.094;2022-11-06T13:16:41;100058.75;;;17.32;100.00
20793;BME280;10556;-33.662;151.094;2022-11-06T13:22:12;100050.94;;;17.33;100.00
20793;BME280;10556;-33.662;151.094;2022-11-06T13:27:26;100035.06;;;17.39;100.00
20793;BME280;10556;-33.662;151.094;2022-11-06T13:32:34;100030.53;;;17.43;100.00
20793;BME280;10556;-33.662;151.094;2022-11-06T13:37:39;100025.47;;;17.41;100.00
20793;BME280;10556;-33.662;151.094;2022-11-06T13:42:48;100024.63;;;17.41;100.00
20793;BME280;10556;-33.662;151.094;2022-11-06T13:48:04;100018.47;;;17.43;100.00
20793;BME280;10556;-33.662;151.094;2022-11-06T13:53:16;100008.91;;;17.46;100.00
20793;BME280;10556;-33.662;151.094;2022-11-06T14:09:41;99983.13;;;17.46;100.00
20793;BME280;10556;-33.662;151.094;2022-11-06T14:14:47;99979.09;;;17.41;100.00
20793;BME280;10556;-33.662;151.094;2022-11-06T14:20:03;99969.22;;;17.35;100.00
20793;BME280;10556;-33.662;151.094;2022-11-06T14:30:46;99957.56;;;17.30;100.00
20793;BME280;10556;-33.662;151.094;2022-11-06T14:35:50;99958.91;;;17.23;100.00
20793;BME280;10556;-33.662;151.094;2022-11-06T14:40:53;99950.97;;;17.13;100.00
20793;BME280;10556;-33.662;151.094;2022-11-06T14:46:00;99945.09;;;17.11;100.00
20793;BME280;10556;-33.662;151.094;2022-11-06T14:51:05;99942.41;;;17.13;100.00
20793;BME280;10556;-33.662;151.094;2022-11-06T14:56:10;99924.69;;;17.08;100.00
20793;BME280;10556;-33.662;151.094;2022-11-06T15:01:22;99937.19;;;17.02;100.00
20793;BME280;10556;-33.662;151.094;2022-11-06T15:06:40;99934.19;;;16.95;100.00
20793;BME280;10556;-33.662;151.094;2022-11-06T15:11:54;99922.53;;;16.89;100.00
20793;BME280;10556;-33.662;151.094;2022-11-06T15:17:04;99921.81;;;16.87;100.00
20793;BME280;10556;-33.662;151.094;2022-11-06T15:22:17;99915.31;;;16.94;100.00
20793;BME280;10556;-33.662;151.094;2022-11-06T15:27:26;99914.91;;;17.00;100.00
20793;BME280;10556;-33.662;151.094;2022-11-06T15:32:33;99906.16;;;17.03;100.00
20793;BME280;10556;-33.662;151.094;2022-11-06T15:37:41;99901.13;;;17.02;100.00
20793;BME280;10556;-33.662;151.094;2022-11-06T15:42:45;99897.50;;;17.04;100.00
20793;BME280;10556;-33.662;151.094;2022-11-06T15:47:55;99888.56;;;16.97;100.00
20793;BME280;10556;-33.662;151.094;2022-11-06T15:53:16;99887.75;;;16.96;100.00
20793;BME280;10556;-33.662;151.094;2022-11-06T15:58:30;99885.16;;;16.96;100.00
20793;BME280;10556;-33.662;151.094;2022-11-06T16:03:43;99881.94;;;16.93;100.00
20793;BME280;10556;-33.662;151.094;2022-11-06T16:08:48;99881.16;;;16.92;100.00
20793;BME280;10556;-33.662;151.094;2022-11-06T16:13:52;99878.44;;;16.94;100.00
20793;BME280;10556;-33.662;151.094;2022-11-06T16:18:56;99868.38;;;16.91;100.00
20793;BME280;10556;-33.662;151.094;2022-11-06T16:24:01;99863.31;;;16.89;100.00
20793;BME280;10556;-33.662;151.094;2022-11-06T16:29:09;99862.19;;;16.81;100.00
20793;BME280;10556;-33.662;151.094;2022-11-06T16:34:33;99861.78;;;16.74;100.00
20793;BME280;10556;-33.662;151.094;2022-11-06T16:39:44;99857.16;;;16.67;100.00
20793;BME280;10556;-33.662;151.094;2022-11-06T16:44:47;99867.97;;;16.59;100.00
20793;BME280;10556;-33.662;151.094;2022-11-06T16:49:52;99867.59;;;16.51;100.00
20793;BME280;10556;-33.662;151.094;2022-11-06T16:54:58;99872.94;;;16.48;100.00
20793;BME280;10556;-33.662;151.094;2022-11-06T17:00:03;99868.94;;;16.44;100.00
20793;BME280;10556;-33.662;151.094;2022-11-06T17:05:11;99868.81;;;16.45;100.00
20793;BME280;10556;-33.662;151.094;2022-11-06T17:10:36;99869.84;;;16.43;100.00
20793;BME280;10556;-33.662;151.094;2022-11-06T17:15:39;99866.75;;;16.38;100.00
20793;BME280;10556;-33.662;151.094;2022-11-06T17:20:46;99859.97;;;16.37;100.00
20793;BME280;10556;-33.662;151.094;2022-11-06T17:25:50;99864.41;;;16.35;100.00
20793;BME280;10556;-33.662;151.094;2022-11-06T17:30:54;99871.69;;;16.28;100.00
20793;BME280;10556;-33.662;151.094;2022-11-06T17:35:58;99868.38;;;16.26;100.00
20793;BME280;10556;-33.662;151.094;2022-11-06T17:41:02;99862.63;;;16.23;100.00
20793;BME280;10556;-33.662;151.094;2022-11-06T17:46:05;99872.28;;;16.19;100.00
20793;BME280;10556;-33.662;151.094;2022-11-06T17:51:09;99872.38;;;16.18;100.00
20793;BME280;10556;-33.662;151.094;2022-11-06T17:56:12;99879.25;;;16.17;100.00
20793;BME280;10556;-33.662;151.094;2022-11-06T18:01:14;99871.75;;;16.14;100.00
20793;BME280;10556;-33.662;151.094;2022-11-06T18:06:19;99872.88;;;16.10;100.00
20793;BME280;10556;-33.662;151.094;2022-11-06T18:11:21;99871.13;;;16.10;100.00
20793;BME280;10556;-33.662;151.094;2022-11-06T18:16:25;99873.19;;;16.05;100.00
20793;BME280;10556;-33.662;151.094;2022-11-06T18:21:30;99870.78;;;16.02;100.00
20793;BME280;10556;-33.662;151.094;2022-11-06T18:26:32;99872.72;;;15.99;100.00
20793;BME280;10556;-33.662;151.094;2022-11-06T18:31:35;99884.06;;;15.96;100.00
20793;BME280;10556;-33.662;151.094;2022-11-06T18:36:39;99895.25;;;15.95;100.00
20793;BME280;10556;-33.662;151.094;2022-11-06T18:41:42;99892.84;;;15.92;100.00
20793;BME280;10556;-33.662;151.094;2022-11-06T18:46:45;99892.13;;;15.90;100.00
20793;BME280;10556;-33.662;151.094;2022-11-06T18:51:49;99902.44;;;15.90;100.00
20793;BME280;10556;-33.662;151.094;2022-11-06T18:56:52;99905.69;;;15.92;100.00
20793;BME280;10556;-33.662;151.094;2022-11-06T19:01:54;99912.31;;;15.96;100.00
20793;BME280;10556;-33.662;151.094;2022-11-06T19:06:59;99913.78;;;16.00;100.00
20793;BME280;10556;-33.662;151.094;2022-11-06T19:12:01;99922.84;;;16.06;100.00
20793;BME280;10556;-33.662;151.094;2022-11-06T19:17:04;99927.50;;;16.13;100.00
20793;BME280;10556;-33.662;151.094;2022-11-06T19:22:08;99932.34;;;16.18;100.00
20793;BME280;10556;-33.662;151.094;2022-11-06T19:27:11;99936.19;;;16.25;100.00
20793;BME280;10556;-33.662;151.094;2022-11-06T19:32:14;99947.72;;;16.32;100.00
20793;BME280;10556;-33.662;151.094;2022-11-06T19:37:18;99942.19;;;16.38;100.00
20793;BME280;10556;-33.662;151.094;2022-11-06T19:42:21;99947.03;;;16.43;100.00
20793;BME280;10556;-33.662;151.094;2022-11-06T19:47:23;99946.66;;;16.49;100.00
20793;BME280;10556;-33.662;151.094;2022-11-06T19:52:28;99941.38;;;16.50;100.00
20793;BME280;10556;-33.662;151.094;2022-11-06T19:57:31;99959.41;;;16.50;100.00
20793;BME280;10556;-33.662;151.094;2022-11-06T20:02:33;99962.25;;;16.46;100.00
20793;BME280;10556;-33.662;151.094;2022-11-06T20:07:38;99962.38;;;16.44;100.00
20793;BME280;10556;-33.662;151.094;2022-11-06T20:12:40;99956.94;;;16.49;100.00
20793;BME280;10556;-33.662;151.094;2022-11-06T20:17:43;99962.81;;;16.51;100.00
20793;BME280;10556;-33.662;151.094;2022-11-06T20:22:47;99966.81;;;16.55;100.00
20793;BME280;10556;-33.662;151.094;2022-11-06T20:27:50;99966.47;;;16.61;100.00
20793;BME280;10556;-33.662;151.094;2022-11-06T20:32:53;99969.56;;;16.66;100.00
20793;BME280;10556;-33.662;151.094;2022-11-06T20:37:57;99969.09;;;16.74;100.00
20793;BME280;10556;-33.662;151.094;2022-11-06T20:43:00;99967.84;;;16.79;100.00
20793;BME280;10556;-33.662;151.094;2022-11-06T20:48:02;99979.38;;;16.86;100.00
20793;BME280;10556;-33.662;151.094;2022-11-06T20:53:07;99983.00;;;16.96;100.00
20793;BME280;10556;-33.662;151.094;2022-11-06T20:58:09;99984.06;;;17.07;100.00
20793;BME280;10556;-33.662;151.094;2022-11-06T21:03:12;99988.38;;;17.19;100.00
20793;BME280;10556;-33.662;151.094;2022-11-06T21:08:17;99989.41;;;17.29;100.00
20793;BME280;10556;-33.662;151.094;2022-11-06T21:13:19;99998.16;;;17.39;100.00
20793;BME280;10556;-33.662;151.094;2022-11-06T21:18:22;100001.03;;;17.47;100.00
20793;BME280;10556;-33.662;151.094;2022-11-06T21:23:27;99995.38;;;17.55;100.00
20793;BME280;10556;-33.662;151.094;2022-11-06T21:28:29;100005.19;;;17.62;100.00
20793;BME280;10556;-33.662;151.094;2022-11-06T21:33:32;100009.72;;;17.71;100.00
20793;BME280;10556;-33.662;151.094;2022-11-06T21:38:36;100012.69;;;17.78;100.00
20793;BME280;10556;-33.662;151.094;2022-11-06T21:43:39;100007.81;;;17.86;100.00
20793;BME280;10556;-33.662;151.094;2022-11-06T21:48:42;100014.09;;;17.95;100.00
20793;BME280;10556;-33.662;151.094;2022-11-06T21:53:46;100017.19;;;18.00;100.00
20793;BME280;10556;-33.662;151.094;2022-11-06T21:58:49;100018.28;;;18.08;100.00
20793;BME280;10556;-33.662;151.094;2022-11-06T22:03:52;100010.13;;;18.14;100.00
20793;BME280;10556;-33.662;151.094;2022-11-06T22:08:58;100010.63;;;18.19;100.00
20793;BME280;10556;-33.662;151.094;2022-11-06T22:14:03;100000.78;;;18.24;100.00
20793;BME280;10556;-33.662;151.094;2022-11-06T22:19:07;100006.94;;;18.35;100.00
20793;BME280;10556;-33.662;151.094;2022-11-06T22:24:12;99997.72;;;18.43;100.00
20793;BME280;10556;-33.662;151.094;2022-11-06T22:29:15;99997.56;;;18.57;100.00
20793;BME280;10556;-33.662;151.094;2022-11-06T22:34:18;99994.47;;;18.76;100.00
20793;BME280;10556;-33.662;151.094;2022-11-06T22:39:22;100001.19;;;18.90;100.00
20793;BME280;10556;-33.662;151.094;2022-11-06T22:44:25;99997.63;;;19.03;100.00
20793;BME280;10556;-33.662;151.094;2022-11-06T22:49:28;99994.59;;;19.21;100.00
20793;BME280;10556;-33.662;151.094;2022-11-06T22:54:32;99995.78;;;19.39;100.00
20793;BME280;10556;-33.662;151.094;2022-11-06T22:59:35;99992.63;;;19.57;100.00
20793;BME280;10556;-33.662;151.094;2022-11-06T23:04:37;99988.88;;;19.84;100.00
20793;BME280;10556;-33.662;151.094;2022-11-06T23:09:42;99986.22;;;20.06;100.00
20793;BME280;10556;-33.662;151.094;2022-11-06T23:14:44;99987.97;;;20.17;100.00
20793;BME280;10556;-33.662;151.094;2022-11-06T23:19:47;99984.66;;;20.37;100.00
20793;BME280;10556;-33.662;151.094;2022-11-06T23:24:51;99980.59;;;20.76;100.00
20793;BME280;10556;-33.662;151.094;2022-11-06T23:29:54;99971.06;;;21.18;100.00
20793;BME280;10556;-33.662;151.094;2022-11-06T23:34:57;99972.38;;;21.33;100.00
20793;BME280;10556;-33.662;151.094;2022-11-06T23:40:01;99977.97;;;21.38;100.00
20793;BME280;10556;-33.662;151.094;2022-11-06T23:45:05;99973.63;;;21.39;100.00
20793;BME280;10556;-33.662;151.094;2022-11-06T23:50:08;99958.94;;;21.68;100.00
20793;BME280;10556;-33.662;151.094;2022-11-06T23:55:13;99963.53;;;21.85;100.00
